createdAt,value
2022-11-13T00:00:01.461Z,0.80
2022-11-13T00:02:46.882Z,0.70
2022-11-13T00:05:32.628Z,0.70
2022-11-13T00:08:19.280Z,0.70
2022-11-13T00:11:09.166Z,0.60
2022-11-13T00:13:54.484Z,0.60
2022-11-13T00:16:39.943Z,0.50
2022-11-13T00:19:25.594Z,0.40
2022-11-13T00:22:10.889Z,0.20
2022-11-13T00:24:56.357Z,0.10
2022-11-13T00:27:41.977Z,0.10
2022-11-13T00:30:27.478Z,0.10
2022-11-13T00:33:18.884Z,0.20
2022-11-13T00:36:16.774Z,0.50
2022-11-13T00:39:02.261Z,0.60
2022-11-13T00:41:47.837Z,0.60
2022-11-13T00:44:33.357Z,0.60
2022-11-13T00:47:18.929Z,0.60
2022-11-13T00:50:05.025Z,0.70
2022-11-13T00:52:50.344Z,0.50
2022-11-13T00:55:36.004Z,0.40
2022-11-13T00:58:21.767Z,0.50
2022-11-13T01:01:10.096Z,0.30
2022-11-13T01:03:55.684Z,0.10
2022-11-13T01:06:41.102Z,0.00
2022-11-13T01:09:26.420Z,-0.10
2022-11-13T01:12:12.065Z,-0.20
2022-11-13T01:14:57.499Z,-0.20
2022-11-13T01:17:43.277Z,-0.10
2022-11-13T01:20:28.611Z,0.10
2022-11-13T01:23:14.245Z,0.10
2022-11-13T01:26:08.851Z,0.00
2022-11-13T01:28:55.913Z,-0.20
2022-11-13T01:31:41.143Z,-0.10
2022-11-13T01:34:26.548Z,-0.10
2022-11-13T01:37:12.215Z,-0.10
2022-11-13T01:39:57.682Z,-0.10
2022-11-13T01:42:43.254Z,-0.10
2022-11-13T01:46:00.117Z,-0.20
2022-11-13T01:48:54.640Z,-0.40
2022-11-13T01:51:49.964Z,-0.40
2022-11-13T01:54:40.945Z,-0.50
2022-11-13T01:57:26.390Z,-0.60
2022-11-13T02:00:12.718Z,-0.60
2022-11-13T02:02:58.782Z,-0.70
2022-11-13T02:05:44.488Z,-0.80
2022-11-13T02:08:30.509Z,-0.80
2022-11-13T02:11:16.880Z,-0.80
2022-11-13T02:14:02.956Z,-0.80
2022-11-13T02:16:51.257Z,-0.60
2022-11-13T02:19:40.503Z,-0.60
2022-11-13T02:22:25.748Z,-0.60
2022-11-13T02:25:13.077Z,-0.70
2022-11-13T02:27:59.088Z,-0.80
2022-11-13T02:30:44.878Z,-0.80
2022-11-13T02:33:32.888Z,-0.90
2022-11-13T02:36:22.564Z,-0.90
2022-11-13T02:39:10.430Z,-0.90
2022-11-13T02:41:55.676Z,-0.80
2022-11-13T02:44:41.415Z,-0.60
2022-11-13T02:47:26.789Z,-0.60
2022-11-13T02:50:13.583Z,-0.60
2022-11-13T02:52:59.175Z,-0.70
2022-11-13T02:55:44.791Z,-0.80
2022-11-13T02:58:30.883Z,-0.90
2022-11-13T03:01:16.674Z,-0.90
2022-11-13T03:04:02.101Z,-1.00
2022-11-13T03:06:47.715Z,-1.00
2022-11-13T03:09:33.099Z,-0.90
2022-11-13T03:12:18.911Z,-1.00
2022-11-13T03:15:05.438Z,-0.90
2022-11-13T03:17:51.284Z,-0.90
2022-11-13T03:20:38.721Z,-0.90
2022-11-13T03:23:24.162Z,-0.80
2022-11-13T03:26:11.918Z,-0.70
2022-11-13T03:31:43.379Z,-0.40
2022-11-13T03:34:29.026Z,-0.30
2022-11-13T03:37:14.551Z,-0.30
2022-11-13T03:39:59.751Z,-0.40
2022-11-13T03:42:45.407Z,-0.50
2022-11-13T03:45:30.818Z,-0.60
2022-11-13T03:48:17.414Z,-0.50
2022-11-13T03:51:03.465Z,-0.40
2022-11-13T03:53:49.068Z,-0.40
2022-11-13T03:56:34.762Z,-0.30
2022-11-13T03:59:20.193Z,-0.20
2022-11-13T04:02:05.693Z,-0.30
2022-11-13T04:04:51.305Z,-0.10
2022-11-13T04:07:36.802Z,-0.10
2022-11-13T04:10:22.552Z,-0.10
2022-11-13T04:13:07.917Z,-0.10
2022-11-13T04:15:53.041Z,0.00
2022-11-13T04:18:38.850Z,0.00
2022-11-13T04:21:24.380Z,0.10
2022-11-13T04:24:10.136Z,0.10
2022-11-13T04:26:55.546Z,0.10
2022-11-13T04:29:40.757Z,0.20
2022-11-13T04:32:26.452Z,0.20
2022-11-13T04:35:12.183Z,0.10
2022-11-13T04:37:57.495Z,0.20
2022-11-13T04:40:43.540Z,0.10
2022-11-13T04:43:29.048Z,0.20
2022-11-13T04:46:14.494Z,0.20
2022-11-13T04:48:59.993Z,0.20
2022-11-13T04:51:45.709Z,0.20
2022-11-13T04:54:31.159Z,0.20
2022-11-13T04:57:16.673Z,0.20
2022-11-13T05:00:02.802Z,0.20
2022-11-13T05:02:48.195Z,0.10
2022-11-13T05:05:33.637Z,0.20
2022-11-13T05:08:19.164Z,0.10
2022-11-13T05:11:05.186Z,0.10
2022-11-13T05:13:50.785Z,0.00
2022-11-13T05:16:36.617Z,0.00
2022-11-13T05:19:21.973Z,0.10
2022-11-13T05:22:08.039Z,0.00
2022-11-13T05:24:53.802Z,-0.10
2022-11-13T05:27:39.086Z,-0.10
2022-11-13T05:30:24.927Z,0.00
2022-11-13T05:33:10.507Z,0.00
2022-11-13T05:35:56.259Z,0.00
2022-11-13T05:38:42.697Z,0.00
2022-11-13T05:41:28.353Z,0.00
2022-11-13T05:44:13.588Z,0.00
2022-11-13T05:46:59.064Z,0.00
2022-11-13T05:49:44.507Z,0.00
2022-11-13T05:52:30.166Z,0.00
2022-11-13T05:55:15.775Z,0.00
2022-11-13T05:58:01.312Z,0.00
2022-11-13T06:00:46.968Z,0.00
2022-11-13T06:03:32.971Z,0.00
2022-11-13T06:06:20.193Z,0.00
2022-11-13T06:09:06.996Z,0.00
2022-11-13T06:11:52.440Z,0.00
2022-11-13T06:14:37.876Z,0.00
2022-11-13T06:17:23.699Z,0.00
2022-11-13T06:20:09.617Z,0.00
2022-11-13T06:22:55.277Z,0.00
2022-11-13T06:25:40.798Z,0.10
2022-11-13T06:28:26.536Z,0.00
2022-11-13T06:31:15.086Z,0.00
2022-11-13T06:34:01.326Z,0.00
2022-11-13T06:36:46.570Z,0.10
2022-11-13T06:39:32.470Z,0.10
2022-11-13T06:42:17.842Z,0.10
2022-11-13T06:45:03.867Z,0.10
2022-11-13T06:47:49.102Z,0.20
2022-11-13T06:50:34.655Z,0.10
2022-11-13T06:53:20.274Z,0.10
2022-11-13T06:56:07.104Z,0.20
2022-11-13T06:58:55.235Z,0.20
2022-11-13T07:01:40.602Z,0.20
2022-11-13T07:04:26.129Z,0.30
2022-11-13T07:07:11.378Z,0.30
2022-11-13T07:09:56.757Z,0.40
2022-11-13T07:12:42.342Z,0.50
2022-11-13T07:15:28.100Z,0.70
2022-11-13T07:18:13.534Z,0.80
2022-11-13T07:21:03.494Z,0.70
2022-11-13T07:23:50.232Z,0.70
2022-11-13T07:26:35.969Z,0.90
2022-11-13T07:29:21.373Z,1.10
2022-11-13T07:32:07.011Z,1.20
2022-11-13T07:34:52.534Z,1.20
2022-11-13T07:37:38.352Z,1.20
2022-11-13T07:40:23.682Z,1.20
2022-11-13T07:43:09.242Z,1.40
2022-11-13T07:45:57.644Z,1.40
2022-11-13T07:48:42.977Z,1.40
2022-11-13T07:51:28.283Z,1.40
2022-11-13T07:54:13.806Z,2.30
2022-11-13T07:56:59.357Z,2.50
2022-11-13T07:59:44.758Z,2.50
2022-11-13T08:02:30.107Z,2.30
2022-11-13T08:05:16.645Z,2.20
2022-11-13T08:08:02.773Z,2.20
2022-11-13T08:10:48.393Z,2.10
2022-11-13T08:13:35.490Z,2.10
2022-11-13T08:16:21.233Z,1.90
2022-11-13T08:19:06.755Z,1.80
2022-11-13T08:21:52.366Z,1.90
2022-11-13T08:24:37.958Z,1.80
2022-11-13T08:27:23.842Z,2.00
2022-11-13T08:30:09.760Z,2.00
2022-11-13T08:32:55.147Z,2.30
2022-11-13T08:35:40.738Z,2.40
2022-11-13T08:38:26.820Z,2.50
2022-11-13T08:41:12.648Z,2.60
2022-11-13T08:43:58.150Z,2.90
2022-11-13T08:46:43.750Z,3.40
2022-11-13T08:49:29.330Z,3.80
2022-11-13T08:52:15.580Z,4.10
2022-11-13T08:55:00.725Z,4.10
2022-11-13T08:57:46.360Z,3.70
2022-11-13T09:00:32.775Z,3.70
2022-11-13T09:03:18.025Z,4.10
2022-11-13T09:06:08.017Z,3.90
2022-11-13T09:08:53.442Z,4.40
2022-11-13T09:11:38.895Z,4.60
2022-11-13T09:14:25.132Z,4.60
2022-11-13T09:17:10.837Z,4.70
2022-11-13T09:20:00.804Z,5.10
2022-11-13T09:22:49.047Z,5.70
2022-11-13T09:25:37.921Z,6.30
2022-11-13T09:28:23.389Z,5.90
2022-11-13T09:31:09.997Z,5.70
2022-11-13T09:33:55.509Z,5.60
2022-11-13T09:36:41.129Z,5.10
2022-11-13T09:39:26.967Z,5.00
2022-11-13T09:42:18.979Z,4.90
2022-11-13T09:45:13.633Z,5.00
2022-11-13T09:48:12.140Z,5.20
2022-11-13T09:51:01.190Z,5.10
2022-11-13T09:53:51.587Z,5.10
2022-11-13T09:57:04.621Z,4.80
2022-11-13T10:00:00.752Z,4.70
2022-11-13T10:03:12.025Z,4.80
2022-11-13T10:06:23.618Z,4.80
2022-11-13T10:09:52.638Z,5.60
2022-11-13T10:12:38.465Z,5.30
2022-11-13T10:15:25.225Z,5.50
2022-11-13T10:18:19.747Z,5.90
2022-11-13T10:21:33.430Z,6.00
2022-11-13T10:24:27.616Z,5.60
2022-11-13T10:27:15.049Z,5.30
2022-11-13T10:30:00.665Z,5.00
2022-11-13T10:32:47.134Z,4.90
2022-11-13T10:35:39.161Z,5.00
2022-11-13T10:38:39.285Z,4.80
2022-11-13T10:41:24.811Z,5.20
2022-11-13T10:44:23.627Z,5.20
2022-11-13T10:47:19.841Z,5.30
2022-11-13T10:50:31.118Z,5.10
2022-11-13T10:53:18.360Z,5.50
2022-11-13T10:56:22.673Z,5.90
2022-11-13T10:59:17.971Z,6.40
2022-11-13T11:02:30.082Z,5.70
2022-11-13T11:05:21.833Z,6.10
2022-11-13T11:08:10.400Z,5.90
2022-11-13T11:11:36.637Z,6.20
2022-11-13T11:14:40.306Z,6.30
2022-11-13T11:17:31.437Z,7.00
2022-11-13T11:20:38.361Z,7.60
2022-11-13T11:23:50.544Z,7.90
2022-11-13T11:27:01.917Z,8.80
2022-11-13T11:29:59.287Z,8.90
2022-11-13T11:32:50.954Z,7.80
2022-11-13T11:35:42.044Z,8.40
2022-11-13T11:38:35.375Z,9.50
2022-11-13T11:41:27.186Z,9.80
2022-11-13T11:44:29.710Z,8.80
2022-11-13T11:47:17.050Z,8.80
2022-11-13T11:50:05.185Z,9.40
2022-11-13T11:53:03.380Z,8.50
2022-11-13T11:56:17.701Z,7.80
2022-11-13T11:59:43.712Z,8.00
2022-11-13T12:02:56.617Z,8.10
2022-11-13T12:06:04.044Z,8.70
2022-11-13T12:09:01.599Z,8.90
2022-11-13T12:11:54.461Z,9.80
2022-11-13T12:14:55.180Z,10.60
2022-11-13T12:18:19.739Z,10.90
2022-11-13T12:21:32.041Z,10.80
2022-11-13T12:24:39.978Z,11.40
2022-11-13T12:27:38.573Z,12.20
2022-11-13T12:30:53.457Z,11.90
2022-11-13T12:34:01.259Z,11.40
2022-11-13T12:36:48.199Z,10.90
2022-11-13T12:39:40.955Z,11.30
2022-11-13T12:42:44.533Z,10.90
2022-11-13T12:45:39.437Z,10.70
2022-11-13T12:48:43.238Z,11.00
2022-11-13T12:51:39.731Z,11.30
2022-11-13T12:54:32.442Z,11.30
2022-11-13T12:57:20.893Z,10.80
2022-11-13T13:00:34.291Z,10.90
2022-11-13T13:03:41.604Z,11.50
2022-11-13T13:06:55.953Z,12.70
2022-11-13T13:10:12.255Z,11.60
2022-11-13T13:13:03.457Z,12.20
2022-11-13T13:16:02.704Z,11.80
2022-11-13T13:18:47.886Z,11.60
2022-11-13T13:21:44.416Z,11.60
2022-11-13T13:24:36.057Z,12.00
2022-11-13T13:27:27.552Z,11.10
2022-11-13T13:30:22.324Z,11.00
2022-11-13T13:33:07.918Z,10.80
2022-11-13T13:36:35.044Z,10.90
2022-11-13T13:40:08.387Z,11.00
2022-11-13T13:43:00.141Z,11.30
2022-11-13T13:46:14.398Z,11.80
2022-11-13T13:49:14.388Z,12.10
2022-11-13T13:51:59.620Z,11.30
2022-11-13T13:54:45.654Z,11.30
2022-11-13T13:57:31.601Z,11.20
2022-11-13T14:00:19.204Z,11.20
2022-11-13T14:03:05.014Z,10.60
2022-11-13T14:05:50.595Z,10.50
2022-11-13T14:08:35.811Z,10.60
2022-11-13T14:11:26.916Z,10.40
2022-11-13T14:14:19.758Z,10.40
2022-11-13T14:17:07.131Z,10.70
2022-11-13T14:19:54.549Z,10.50
2022-11-13T14:22:42.210Z,10.40
2022-11-13T14:25:29.073Z,10.40
2022-11-13T14:28:20.358Z,10.10
2022-11-13T14:31:08.562Z,9.80
2022-11-13T14:33:53.945Z,9.60
2022-11-13T14:36:40.816Z,9.10
2022-11-13T14:39:34.181Z,8.50
2022-11-13T14:42:21.315Z,8.10
2022-11-13T14:45:16.517Z,7.70
2022-11-13T14:48:20.278Z,7.30
2022-11-13T14:51:20.257Z,7.00
2022-11-13T14:54:09.059Z,6.80
2022-11-13T14:56:54.773Z,6.40
2022-11-13T14:59:43.876Z,6.10
2022-11-13T15:02:29.545Z,5.90
2022-11-13T15:05:15.157Z,5.80
2022-11-13T15:08:01.063Z,5.60
2022-11-13T15:10:46.956Z,5.40
2022-11-13T15:13:32.172Z,5.30
2022-11-13T15:16:24.503Z,5.10
2022-11-13T15:19:24.912Z,5.00
2022-11-13T15:22:26.682Z,4.90
2022-11-13T15:25:15.993Z,4.90
2022-11-13T15:28:01.885Z,4.80
2022-11-13T15:30:47.212Z,4.70
2022-11-13T15:33:32.592Z,4.60
2022-11-13T15:36:18.216Z,4.50
2022-11-13T15:39:06.636Z,4.40
2022-11-13T15:41:53.082Z,4.30
2022-11-13T15:44:38.599Z,4.20
2022-11-13T15:47:35.817Z,4.10
2022-11-13T15:50:21.214Z,4.00
2022-11-13T15:53:09.198Z,4.00
2022-11-13T15:55:54.549Z,4.00
2022-11-13T15:58:40.145Z,4.00
2022-11-13T16:01:25.766Z,4.10
2022-11-13T16:04:13.193Z,4.00
2022-11-13T16:06:58.814Z,4.10
2022-11-13T16:09:47.717Z,4.00
2022-11-13T16:12:33.187Z,4.00
2022-11-13T16:15:19.706Z,4.10
2022-11-13T16:18:14.716Z,4.10
2022-11-13T16:21:00.054Z,4.10
2022-11-13T16:23:45.511Z,4.10
2022-11-13T16:26:31.374Z,4.20
2022-11-13T16:29:19.994Z,4.10
2022-11-13T16:32:05.730Z,4.20
2022-11-13T16:34:51.189Z,4.10
2022-11-13T16:37:36.586Z,4.10
2022-11-13T16:40:26.220Z,4.10
2022-11-13T16:43:12.948Z,4.10
2022-11-13T16:46:00.387Z,4.10
2022-11-13T16:48:46.410Z,4.10
2022-11-13T16:51:32.076Z,4.10
2022-11-13T16:54:17.535Z,4.10
2022-11-13T16:57:03.319Z,4.10
2022-11-13T16:59:48.799Z,4.10
2022-11-13T17:02:34.696Z,4.10
2022-11-13T17:05:21.910Z,4.10
2022-11-13T17:08:12.024Z,4.10
2022-11-13T17:10:58.271Z,4.10
2022-11-13T17:13:44.166Z,4.10
2022-11-13T17:16:30.689Z,4.00
2022-11-13T17:19:15.942Z,4.00
2022-11-13T17:22:01.650Z,4.00
2022-11-13T17:24:47.594Z,3.90
2022-11-13T17:27:33.127Z,3.90
2022-11-13T17:30:18.835Z,3.90
2022-11-13T17:33:04.297Z,3.90
2022-11-13T17:35:57.186Z,3.90
2022-11-13T17:38:42.628Z,3.80
2022-11-13T17:41:28.072Z,3.80
2022-11-13T17:44:13.691Z,3.70
2022-11-13T17:46:59.312Z,3.70
2022-11-13T17:49:44.839Z,3.60
2022-11-13T17:52:30.506Z,3.60
2022-11-13T17:55:17.334Z,3.50
2022-11-13T17:58:03.045Z,3.50
2022-11-13T18:00:49.288Z,3.40
2022-11-13T18:03:35.340Z,3.40
2022-11-13T18:06:21.227Z,3.40
2022-11-13T18:09:06.883Z,3.30
2022-11-13T18:11:52.373Z,3.40
2022-11-13T18:14:37.949Z,3.30
2022-11-13T18:17:24.160Z,3.30
2022-11-13T18:20:09.962Z,3.30
2022-11-13T18:22:56.131Z,3.20
2022-11-13T18:25:41.560Z,3.20
2022-11-13T18:28:27.168Z,3.10
2022-11-13T18:31:16.461Z,3.10
2022-11-13T18:34:04.099Z,3.10
2022-11-13T18:36:49.979Z,3.00
2022-11-13T18:39:35.689Z,3.00
2022-11-13T18:42:21.217Z,3.00
2022-11-13T18:45:07.573Z,3.00
2022-11-13T18:47:53.220Z,3.00
2022-11-13T18:50:38.405Z,3.00
2022-11-13T18:53:24.121Z,3.00
2022-11-13T18:56:13.784Z,3.00
2022-11-13T18:59:00.113Z,3.00
2022-11-13T19:01:45.458Z,2.90
2022-11-13T19:04:30.917Z,3.00
2022-11-13T19:07:16.466Z,2.90
2022-11-13T19:10:02.362Z,3.00
2022-11-13T19:12:47.631Z,3.00
2022-11-13T19:15:37.214Z,3.00
2022-11-13T19:18:22.551Z,3.00
2022-11-13T19:21:15.030Z,3.00
2022-11-13T19:24:01.411Z,3.00
2022-11-13T19:26:46.898Z,2.90
2022-11-13T19:29:32.517Z,2.90
2022-11-13T19:32:18.278Z,3.00
2022-11-13T19:35:04.274Z,3.00
2022-11-13T19:37:56.523Z,3.00
2022-11-13T19:40:47.943Z,3.00
2022-11-13T19:43:34.923Z,3.00
2022-11-13T19:46:20.940Z,3.00
2022-11-13T19:49:07.075Z,3.00
2022-11-13T19:51:54.608Z,3.00
2022-11-13T19:54:40.008Z,3.00
2022-11-13T19:57:25.748Z,3.10
2022-11-13T20:00:12.926Z,3.10
2022-11-13T20:02:58.399Z,3.10
2022-11-13T20:05:44.051Z,3.00
2022-11-13T20:08:29.901Z,3.00
2022-11-13T20:11:15.582Z,3.00
2022-11-13T20:14:01.142Z,3.00
2022-11-13T20:16:46.671Z,3.00
2022-11-13T20:19:32.413Z,3.00
2022-11-13T20:22:17.856Z,3.00
2022-11-13T20:25:03.647Z,3.00
2022-11-13T20:27:49.148Z,3.00
2022-11-13T20:30:34.676Z,3.00
2022-11-13T20:33:22.771Z,3.00
2022-11-13T20:36:08.730Z,3.00
2022-11-13T20:38:56.174Z,3.00
2022-11-13T20:41:41.919Z,2.90
2022-11-13T20:44:27.028Z,3.00
2022-11-13T20:47:12.530Z,3.00
2022-11-13T20:49:58.004Z,3.00
2022-11-13T20:52:44.434Z,2.90
2022-11-13T20:55:30.704Z,2.90
2022-11-13T20:58:16.010Z,2.90
2022-11-13T21:01:06.731Z,2.90
2022-11-13T21:03:52.382Z,2.90
2022-11-13T21:06:38.114Z,2.90
2022-11-13T21:09:23.436Z,2.90
2022-11-13T21:12:09.392Z,2.90
2022-11-13T21:14:54.484Z,2.80
2022-11-13T21:17:40.027Z,2.80
2022-11-13T21:20:25.486Z,2.80
2022-11-13T21:23:10.993Z,2.80
2022-11-13T21:26:04.560Z,2.90
2022-11-13T21:28:49.880Z,2.90
2022-11-13T21:31:35.318Z,2.90
2022-11-13T21:34:20.864Z,2.90
2022-11-13T21:37:07.678Z,2.90
2022-11-13T21:39:52.777Z,2.90
2022-11-13T21:42:38.292Z,2.90
2022-11-13T21:45:23.902Z,3.00
2022-11-13T21:48:09.937Z,3.00
2022-11-13T21:50:55.316Z,3.00
2022-11-13T21:53:40.515Z,3.00
2022-11-13T21:56:27.858Z,3.00
2022-11-13T21:59:13.072Z,3.00
2022-11-13T22:01:59.467Z,3.00
2022-11-13T22:04:45.257Z,3.00
2022-11-13T22:07:30.838Z,2.90
2022-11-13T22:10:16.218Z,2.90
2022-11-13T22:13:01.678Z,2.90
2022-11-13T22:15:47.055Z,2.90
2022-11-13T22:18:33.372Z,2.90
2022-11-13T22:21:18.686Z,2.90
2022-11-13T22:24:04.877Z,2.90
2022-11-13T22:26:50.357Z,2.90
2022-11-13T22:29:35.812Z,2.90
2022-11-13T22:32:21.324Z,2.90
2022-11-13T22:35:07.442Z,2.90
2022-11-13T22:37:53.381Z,2.90
2022-11-13T22:40:39.016Z,3.00
2022-11-13T22:43:24.458Z,2.90
2022-11-13T22:46:13.260Z,2.90
2022-11-13T22:49:03.688Z,2.90
2022-11-13T22:51:48.901Z,2.80
2022-11-13T22:54:34.484Z,2.90
2022-11-13T22:57:20.160Z,2.80
2022-11-13T23:00:09.320Z,2.90
2022-11-13T23:02:54.782Z,2.90
2022-11-13T23:05:40.387Z,2.90
2022-11-13T23:08:25.844Z,2.90
2022-11-13T23:11:14.718Z,2.90
2022-11-13T23:14:02.490Z,2.90
2022-11-13T23:16:47.733Z,2.90
2022-11-13T23:19:33.434Z,2.90
2022-11-13T23:22:18.849Z,2.90
2022-11-13T23:25:04.576Z,2.90
2022-11-13T23:27:49.821Z,2.90
2022-11-13T23:30:35.396Z,2.90
2022-11-13T23:33:21.163Z,2.90
2022-11-13T23:36:07.943Z,2.90
2022-11-13T23:38:53.461Z,2.90
2022-11-13T23:41:38.886Z,2.90
2022-11-13T23:44:24.513Z,2.90
2022-11-13T23:47:09.676Z,2.90
2022-11-13T23:49:55.065Z,2.90
2022-11-13T23:52:40.563Z,2.90
2022-11-13T23:55:26.323Z,2.90
2022-11-13T23:58:16.729Z,2.90
